createdAt,value
2019-01-08T00:00:32.427Z,17.07
2019-01-08T00:03:03.347Z,17.83
2019-01-08T00:05:34.855Z,17.10
2019-01-08T00:08:06.280Z,16.63
2019-01-08T00:10:37.238Z,15.97
2019-01-08T00:13:09.188Z,16.43
2019-01-08T00:15:41.808Z,21.03
2019-01-08T00:18:14.142Z,17.20
2019-01-08T00:20:46.498Z,17.47
2019-01-08T00:23:21.956Z,18.93
2019-01-08T00:25:52.539Z,22.27
2019-01-08T00:28:24.014Z,21.70
2019-01-08T00:30:54.859Z,20.57
2019-01-08T00:33:25.709Z,19.00
2019-01-08T00:35:56.661Z,22.87
2019-01-08T00:38:28.816Z,24.93
2019-01-08T00:40:59.962Z,19.13
2019-01-08T00:43:31.000Z,19.53
2019-01-08T00:46:01.564Z,18.67
2019-01-08T00:48:33.046Z,16.27
2019-01-08T00:51:03.866Z,21.13
2019-01-08T00:53:34.758Z,26.13
2019-01-08T00:56:05.810Z,18.03
2019-01-08T00:58:36.480Z,16.33
2019-01-08T01:01:07.788Z,20.73
2019-01-08T01:03:39.439Z,17.70
2019-01-08T01:06:10.389Z,22.23
2019-01-08T01:08:41.320Z,18.80
2019-01-08T01:11:11.909Z,18.47
2019-01-08T01:13:43.782Z,22.40
2019-01-08T01:16:16.493Z,19.13
2019-01-08T01:18:47.898Z,15.90
2019-01-08T01:21:19.449Z,18.50
2019-01-08T01:23:50.234Z,22.23
2019-01-08T01:26:21.138Z,19.63
2019-01-08T01:28:59.929Z,20.70
2019-01-08T01:31:25.422Z,19.73
2019-01-08T01:33:57.009Z,21.93
2019-01-08T01:36:27.904Z,18.57
2019-01-08T01:38:59.817Z,18.77
2019-01-08T01:41:30.716Z,22.50
2019-01-08T01:44:01.706Z,23.33
2019-01-08T01:46:32.937Z,17.13
2019-01-08T01:49:05.265Z,24.77
2019-01-08T01:51:36.074Z,21.07
2019-01-08T01:54:11.037Z,20.00
2019-01-08T01:56:43.426Z,23.63
2019-01-08T01:59:14.081Z,22.43
2019-01-08T02:01:45.647Z,22.03
2019-01-08T02:04:17.754Z,19.80
2019-01-08T02:06:48.850Z,18.50
2019-01-08T02:09:19.871Z,18.00
2019-01-08T02:11:55.095Z,20.03
2019-01-08T02:14:25.681Z,21.83
2019-01-08T02:16:56.617Z,15.97
2019-01-08T02:19:28.239Z,21.67
2019-01-08T02:22:01.929Z,16.63
2019-01-08T02:24:33.833Z,17.40
2019-01-08T02:27:08.213Z,17.70
2019-01-08T02:29:43.952Z,19.83
2019-01-08T02:32:16.641Z,14.17
2019-01-08T02:34:47.477Z,17.90
2019-01-08T02:37:19.847Z,20.90
2019-01-08T02:39:52.019Z,15.00
2019-01-08T02:42:23.155Z,15.90
2019-01-08T02:44:55.647Z,17.53
2019-01-08T02:47:28.835Z,17.43
2019-01-08T02:49:59.573Z,16.23
2019-01-08T02:52:31.898Z,16.70
2019-01-08T02:55:03.272Z,18.73
2019-01-08T02:57:36.217Z,16.53
2019-01-08T03:00:07.336Z,14.13
2019-01-08T03:02:41.330Z,14.90
2019-01-08T03:05:12.980Z,14.77
2019-01-08T03:07:44.863Z,15.10
2019-01-08T03:10:16.601Z,15.70
2019-01-08T03:12:47.953Z,20.13
2019-01-08T03:15:20.132Z,14.47
2019-01-08T03:17:50.552Z,16.00
2019-01-08T03:20:26.266Z,20.50
2019-01-08T03:22:57.541Z,16.23
2019-01-08T03:25:28.687Z,14.50
2019-01-08T03:28:01.386Z,15.00
2019-01-08T03:30:32.854Z,12.97
2019-01-08T03:33:05.477Z,11.70
2019-01-08T03:35:38.244Z,13.87
2019-01-08T03:38:10.865Z,12.00
2019-01-08T03:40:43.026Z,13.40
2019-01-08T03:43:13.421Z,15.93
2019-01-08T03:45:47.074Z,12.80
2019-01-08T03:48:18.247Z,14.03
2019-01-08T03:50:48.974Z,13.43
2019-01-08T03:53:19.990Z,12.23
2019-01-08T03:55:51.867Z,13.23
2019-01-08T03:58:24.440Z,16.63
2019-01-08T04:00:57.084Z,13.63
2019-01-08T04:03:28.253Z,11.47
2019-01-08T04:05:58.572Z,12.23
2019-01-08T04:08:29.374Z,11.47
2019-01-08T04:10:59.775Z,10.53
2019-01-08T04:13:31.686Z,14.40
2019-01-08T04:16:02.406Z,13.70
2019-01-08T04:18:34.560Z,13.27
2019-01-08T04:21:06.859Z,11.97
2019-01-08T04:23:38.847Z,11.77
2019-01-08T04:26:11.730Z,10.73
2019-01-08T04:28:42.465Z,11.63
2019-01-08T04:31:14.794Z,8.10
2019-01-08T04:33:47.532Z,10.77
2019-01-08T04:36:19.230Z,10.50
2019-01-08T04:38:51.792Z,10.17
2019-01-08T04:41:22.565Z,11.70
2019-01-08T04:43:54.851Z,8.53
2019-01-08T04:46:25.628Z,12.77
2019-01-08T04:48:57.123Z,8.93
2019-01-08T04:51:29.467Z,7.97
2019-01-08T04:54:13.308Z,7.70
2019-01-08T04:56:43.676Z,7.50
2019-01-08T04:59:14.536Z,9.70
2019-01-08T05:01:45.870Z,7.53
2019-01-08T05:04:17.024Z,9.90
2019-01-08T05:06:48.760Z,8.37
2019-01-08T05:09:20.229Z,8.03
2019-01-08T05:11:51.264Z,10.07
2019-01-08T05:14:23.419Z,8.10
2019-01-08T05:16:53.816Z,9.17
2019-01-08T05:19:24.227Z,9.40
2019-01-08T05:21:56.542Z,9.07
2019-01-08T05:24:27.381Z,7.03
2019-01-08T05:26:58.316Z,9.23
2019-01-08T05:29:30.353Z,9.30
2019-01-08T05:32:02.344Z,8.07
2019-01-08T05:34:34.332Z,5.97
2019-01-08T05:37:06.655Z,6.67
2019-01-08T05:39:38.826Z,7.80
2019-01-08T05:42:13.815Z,7.00
2019-01-08T05:44:45.329Z,9.07
2019-01-08T05:47:18.402Z,6.97
2019-01-08T05:49:50.578Z,7.90
2019-01-08T05:52:21.757Z,8.60
2019-01-08T05:54:53.493Z,6.87
2019-01-08T05:57:25.860Z,9.90
2019-01-08T05:59:58.171Z,8.60
2019-01-08T06:02:29.976Z,10.00
2019-01-08T06:05:02.509Z,10.57
2019-01-08T06:07:35.395Z,6.33
2019-01-08T06:10:08.183Z,8.50
2019-01-08T06:12:40.581Z,9.53
2019-01-08T06:15:11.314Z,8.13
2019-01-08T06:17:42.705Z,7.63
2019-01-08T06:20:16.869Z,7.30
2019-01-08T06:22:48.802Z,8.63
2019-01-08T06:25:22.215Z,7.17
2019-01-08T06:27:55.917Z,7.93
2019-01-08T06:30:27.910Z,8.17
2019-01-08T06:33:00.688Z,7.20
2019-01-08T06:35:34.586Z,10.03
2019-01-08T06:38:05.427Z,6.50
2019-01-08T06:40:40.253Z,10.63
2019-01-08T06:43:11.675Z,7.87
2019-01-08T06:45:42.564Z,7.53
2019-01-08T06:48:13.367Z,8.00
2019-01-08T06:50:47.110Z,6.43
2019-01-08T06:53:21.235Z,6.90
2019-01-08T06:55:55.064Z,6.77
2019-01-08T06:58:30.237Z,6.83
2019-01-08T07:01:01.682Z,7.73
2019-01-08T07:03:33.515Z,9.33
2019-01-08T07:06:04.773Z,7.83
2019-01-08T07:08:37.358Z,6.90
2019-01-08T07:11:10.277Z,11.73
2019-01-08T07:13:44.153Z,7.97
2019-01-08T07:16:16.855Z,10.07
2019-01-08T07:18:51.246Z,8.93
2019-01-08T07:21:22.058Z,9.13
2019-01-08T07:23:52.851Z,7.77
2019-01-08T07:26:26.627Z,7.10
2019-01-08T07:29:03.324Z,8.77
2019-01-08T07:31:36.726Z,9.33
2019-01-08T07:34:08.998Z,8.67
2019-01-08T07:36:41.305Z,10.77
2019-01-08T07:39:12.021Z,8.20
2019-01-08T07:41:43.659Z,9.03
2019-01-08T07:44:17.481Z,10.67
2019-01-08T07:46:48.782Z,9.57
2019-01-08T07:49:20.962Z,7.67
2019-01-08T07:51:52.123Z,11.03
2019-01-08T07:54:24.905Z,8.30
2019-01-08T07:56:57.117Z,6.13
2019-01-08T07:59:39.025Z,12.47
2019-01-08T08:02:08.951Z,7.47
2019-01-08T08:04:47.315Z,10.47
2019-01-08T08:07:11.644Z,10.00
2019-01-08T08:09:42.438Z,13.40
2019-01-08T08:12:12.838Z,9.13
2019-01-08T08:14:44.661Z,11.43
2019-01-08T08:17:14.905Z,9.67
2019-01-08T08:19:46.968Z,9.17
2019-01-08T08:22:18.444Z,7.67
2019-01-08T08:24:49.159Z,7.37
2019-01-08T08:27:21.697Z,7.90
2019-01-08T08:29:54.906Z,8.27
2019-01-08T08:32:25.777Z,8.70
2019-01-08T08:34:56.437Z,6.37
2019-01-08T08:37:26.997Z,10.33
2019-01-08T08:39:57.847Z,9.17
2019-01-08T08:42:31.988Z,9.37
2019-01-08T08:45:02.394Z,6.40
2019-01-08T08:47:33.243Z,6.47
2019-01-08T08:50:03.977Z,8.00
2019-01-08T08:52:35.922Z,10.77
2019-01-08T08:55:07.265Z,7.67
2019-01-08T08:57:37.840Z,7.67
2019-01-08T09:00:09.224Z,6.57
2019-01-08T09:02:40.590Z,8.50
2019-01-08T09:05:11.976Z,5.90
2019-01-08T09:07:43.012Z,5.20
2019-01-08T09:10:13.424Z,6.43
2019-01-08T09:12:43.310Z,10.47
2019-01-08T09:15:13.843Z,6.70
2019-01-08T09:17:44.084Z,9.53
2019-01-08T09:20:14.418Z,7.63
2019-01-08T09:22:44.836Z,7.77
2019-01-08T09:25:15.491Z,8.70
2019-01-08T09:27:46.129Z,5.73
2019-01-08T09:30:16.828Z,9.17
2019-01-08T09:32:47.379Z,10.77
2019-01-08T09:35:17.634Z,7.00
2019-01-08T09:37:47.802Z,8.83
2019-01-08T09:40:17.984Z,6.73
2019-01-08T09:42:48.041Z,7.07
2019-01-08T09:45:18.297Z,6.40
2019-01-08T09:47:48.694Z,7.20
2019-01-08T09:50:19.416Z,8.80
2019-01-08T09:52:49.960Z,5.97
2019-01-08T09:55:19.808Z,8.53
2019-01-08T09:57:50.682Z,7.53
2019-01-08T10:00:20.898Z,5.23
2019-01-08T10:02:52.427Z,6.27
2019-01-08T10:05:23.948Z,6.00
2019-01-08T10:07:57.132Z,5.23
2019-01-08T10:10:27.395Z,5.80
2019-01-08T10:13:01.404Z,5.63
2019-01-08T10:15:31.892Z,3.63
2019-01-08T10:18:02.763Z,5.23
2019-01-08T10:20:32.970Z,5.20
2019-01-08T10:23:10.092Z,4.03
2019-01-08T10:25:36.963Z,3.63
2019-01-08T10:28:07.488Z,3.47
2019-01-08T10:30:38.152Z,4.00
2019-01-08T10:33:08.694Z,4.93
2019-01-08T10:35:39.159Z,3.27
2019-01-08T10:38:09.161Z,3.60
2019-01-08T10:40:39.081Z,5.30
2019-01-08T10:43:09.202Z,5.10
2019-01-08T10:45:39.671Z,3.33
2019-01-08T10:48:09.940Z,3.17
2019-01-08T10:50:41.585Z,3.73
2019-01-08T10:53:12.190Z,4.60
2019-01-08T10:55:43.742Z,6.90
2019-01-08T10:58:14.886Z,4.40
2019-01-08T11:00:45.733Z,3.37
2019-01-08T11:03:16.013Z,5.57
2019-01-08T11:05:46.351Z,3.77
2019-01-08T11:08:16.809Z,4.43
2019-01-08T11:10:47.431Z,6.27
2019-01-08T11:13:18.457Z,6.40
2019-01-08T11:15:49.249Z,5.67
2019-01-08T11:18:20.758Z,5.47
2019-01-08T11:20:53.131Z,5.43
2019-01-08T11:23:23.446Z,5.20
2019-01-08T11:25:54.765Z,5.20
2019-01-08T11:28:25.325Z,4.87
2019-01-08T11:30:56.373Z,4.07
2019-01-08T11:33:26.700Z,4.07
2019-01-08T11:35:57.438Z,3.63
2019-01-08T11:38:28.272Z,4.83
2019-01-08T11:40:58.372Z,4.30
2019-01-08T11:43:29.841Z,3.77
2019-01-08T11:46:00.004Z,3.47
2019-01-08T11:48:30.284Z,3.43
2019-01-08T11:51:00.720Z,6.50
2019-01-08T11:53:33.400Z,5.63
2019-01-08T11:56:04.311Z,6.13
2019-01-08T11:58:34.261Z,4.57
2019-01-08T12:01:04.693Z,5.70
2019-01-08T12:03:34.965Z,4.07
2019-01-08T12:06:06.199Z,3.33
2019-01-08T12:08:36.256Z,4.13
2019-01-08T12:11:07.102Z,6.07
2019-01-08T12:13:38.852Z,2.73
2019-01-08T12:16:10.812Z,2.63
2019-01-08T12:18:42.194Z,4.17
2019-01-08T12:21:12.902Z,3.10
2019-01-08T12:23:44.213Z,4.33
2019-01-08T12:26:14.654Z,4.27
2019-01-08T12:28:45.164Z,3.50
2019-01-08T12:31:15.705Z,4.80
2019-01-08T12:33:45.988Z,4.60
2019-01-08T12:36:16.595Z,4.83
2019-01-08T12:38:47.025Z,3.10
2019-01-08T12:41:17.353Z,3.47
2019-01-08T12:43:48.607Z,3.00
2019-01-08T12:46:18.868Z,3.67
2019-01-08T12:48:49.628Z,3.43
2019-01-08T12:51:21.125Z,3.80
2019-01-08T12:53:52.821Z,2.03
2019-01-08T12:56:22.973Z,3.90
2019-01-08T12:58:53.599Z,4.47
2019-01-08T13:01:26.831Z,1.67
2019-01-08T13:03:59.000Z,5.47
2019-01-08T13:06:29.896Z,5.60
2019-01-08T13:09:00.235Z,2.70
2019-01-08T13:11:30.515Z,2.70
2019-01-08T13:14:00.507Z,4.37
2019-01-08T13:16:32.888Z,4.40
2019-01-08T13:19:03.263Z,3.87
2019-01-08T13:21:35.258Z,3.23
2019-01-08T13:24:05.889Z,2.47
2019-01-08T13:26:36.378Z,8.80
2019-01-08T13:29:06.632Z,2.57
2019-01-08T13:31:37.150Z,5.03
2019-01-08T13:34:07.683Z,4.20
2019-01-08T13:36:38.531Z,3.43
2019-01-08T13:39:10.071Z,2.17
2019-01-08T13:41:51.438Z,2.30
2019-01-08T13:44:27.429Z,4.53
2019-01-08T13:46:58.014Z,4.30
2019-01-08T13:49:28.581Z,1.17
2019-01-08T13:51:58.653Z,4.97
2019-01-08T13:54:30.489Z,5.27
2019-01-08T13:57:00.490Z,1.73
2019-01-08T13:59:30.683Z,3.93
2019-01-08T14:02:00.954Z,3.17
2019-01-08T14:04:32.154Z,1.10
2019-01-08T14:07:03.217Z,7.30
2019-01-08T14:09:33.534Z,2.60
2019-01-08T14:12:04.385Z,4.70
2019-01-08T14:14:35.203Z,3.83
2019-01-08T14:17:05.233Z,4.90
2019-01-08T14:19:35.737Z,2.03
2019-01-08T14:22:05.979Z,2.00
2019-01-08T14:24:36.735Z,7.50
2019-01-08T14:27:11.929Z,4.43
2019-01-08T14:29:42.340Z,3.50
2019-01-08T14:32:12.915Z,3.07
2019-01-08T14:34:43.783Z,1.73
2019-01-08T14:37:16.281Z,2.70
2019-01-08T14:39:49.872Z,2.93
2019-01-08T14:42:20.867Z,2.33
2019-01-08T14:44:51.598Z,2.50
2019-01-08T14:47:22.252Z,2.43
2019-01-08T14:49:53.590Z,3.33
2019-01-08T14:52:24.625Z,3.63
2019-01-08T14:54:56.604Z,4.63
2019-01-08T14:57:27.422Z,2.50
2019-01-08T14:59:58.387Z,3.90
2019-01-08T15:02:29.177Z,3.13
2019-01-08T15:04:59.350Z,3.33
2019-01-08T15:07:31.171Z,3.97
2019-01-08T15:10:03.562Z,5.10
2019-01-08T15:12:33.036Z,3.70
2019-01-08T15:15:03.498Z,4.73
2019-01-08T15:17:33.995Z,2.47
2019-01-08T15:20:04.927Z,4.73
2019-01-08T15:22:35.218Z,4.03
2019-01-08T15:25:06.269Z,6.90
2019-01-08T15:27:36.632Z,4.53
2019-01-08T15:30:08.724Z,3.70
2019-01-08T15:32:39.180Z,3.33
2019-01-08T15:35:09.953Z,4.80
2019-01-08T15:37:40.039Z,1.37
2019-01-08T15:40:10.364Z,6.93
2019-01-08T15:42:40.640Z,4.70
2019-01-08T15:45:11.473Z,2.27
2019-01-08T15:47:42.337Z,3.00
2019-01-08T15:50:12.356Z,6.77
2019-01-08T15:52:42.633Z,2.60
2019-01-08T15:55:14.393Z,1.70
2019-01-08T15:57:45.418Z,3.30
2019-01-08T16:00:15.721Z,2.60
2019-01-08T16:02:45.982Z,4.13
2019-01-08T16:05:15.908Z,10.33
2019-01-08T16:07:48.176Z,4.77
2019-01-08T16:10:18.899Z,4.20
2019-01-08T16:12:49.291Z,6.30
2019-01-08T16:15:21.410Z,7.67
2019-01-08T16:17:52.436Z,5.23
2019-01-08T16:20:23.498Z,8.70
2019-01-08T16:22:53.803Z,3.77
2019-01-08T16:25:24.313Z,4.57
2019-01-08T16:27:55.240Z,3.43
2019-01-08T16:30:25.721Z,6.70
2019-01-08T16:32:58.348Z,4.17
2019-01-08T16:35:29.127Z,6.67
2019-01-08T16:38:01.710Z,4.10
2019-01-08T16:40:32.792Z,4.73
2019-01-08T16:43:03.239Z,2.77
2019-01-08T16:45:33.749Z,2.83
2019-01-08T16:48:03.858Z,2.77
2019-01-08T16:50:34.057Z,7.83
2019-01-08T16:53:05.290Z,5.70
2019-01-08T16:55:35.610Z,4.90
2019-01-08T16:58:05.601Z,5.97
2019-01-08T17:00:35.960Z,3.53
2019-01-08T17:03:05.916Z,6.60
2019-01-08T17:05:36.131Z,3.43
2019-01-08T17:08:07.271Z,2.87
2019-01-08T17:10:37.990Z,6.07
2019-01-08T17:13:08.173Z,3.47
2019-01-08T17:15:38.539Z,4.67
2019-01-08T17:18:08.550Z,5.93
2019-01-08T17:20:38.433Z,3.50
2019-01-08T17:23:08.758Z,4.93
2019-01-08T17:25:39.399Z,3.77
2019-01-08T17:28:10.028Z,3.83
2019-01-08T17:30:40.666Z,3.90
2019-01-08T17:33:11.903Z,5.77
2019-01-08T17:35:42.269Z,5.03
2019-01-08T17:38:13.885Z,3.73
2019-01-08T17:40:44.038Z,2.57
2019-01-08T17:43:14.004Z,3.73
2019-01-08T17:45:44.243Z,3.93
2019-01-08T17:48:14.823Z,3.57
2019-01-08T17:50:45.645Z,3.20
2019-01-08T17:53:17.365Z,7.30
2019-01-08T17:55:47.680Z,3.03
2019-01-08T17:58:43.204Z,2.47
2019-01-08T18:01:16.329Z,7.33
2019-01-08T18:03:48.274Z,3.03
2019-01-08T18:06:18.188Z,2.63
2019-01-08T18:08:48.791Z,5.90
2019-01-08T18:11:19.864Z,2.27
2019-01-08T18:13:50.490Z,2.77
2019-01-08T18:16:21.775Z,3.87
2019-01-08T18:18:52.725Z,9.23
2019-01-08T18:21:23.424Z,3.73
2019-01-08T18:23:54.299Z,5.23
2019-01-08T18:26:25.304Z,2.83
2019-01-08T18:28:56.187Z,3.97
2019-01-08T18:31:26.533Z,2.37
2019-01-08T18:33:56.695Z,7.10
2019-01-08T18:36:27.018Z,4.40
2019-01-08T18:38:57.509Z,5.80
2019-01-08T18:41:27.886Z,5.63
2019-01-08T18:43:58.338Z,5.57
2019-01-08T18:46:28.606Z,3.00
2019-01-08T18:48:58.795Z,4.47
2019-01-08T18:51:29.144Z,4.93
2019-01-08T18:53:59.462Z,6.83
2019-01-08T18:56:29.741Z,6.30
2019-01-08T18:59:00.051Z,5.33
2019-01-08T19:01:30.841Z,3.47
2019-01-08T19:04:01.186Z,4.20
2019-01-08T19:06:31.500Z,3.77
2019-01-08T19:09:23.891Z,7.60
2019-01-08T19:11:54.883Z,4.23
2019-01-08T19:14:28.070Z,2.93
2019-01-08T19:16:58.072Z,5.23
2019-01-08T19:19:27.973Z,4.00
2019-01-08T19:21:58.632Z,6.80
2019-01-08T19:24:29.236Z,7.90
2019-01-08T19:27:00.006Z,8.07
2019-01-08T19:29:30.116Z,6.90
2019-01-08T19:32:00.554Z,3.03
2019-01-08T19:34:30.521Z,6.10
2019-01-08T19:37:02.420Z,5.57
2019-01-08T19:39:32.781Z,5.33
2019-01-08T19:42:03.019Z,5.80
2019-01-08T19:44:34.124Z,4.07
2019-01-08T19:47:04.441Z,5.40
2019-01-08T19:49:34.757Z,9.90
2019-01-08T19:52:05.000Z,8.23
2019-01-08T19:54:35.307Z,5.60
2019-01-08T19:57:05.277Z,6.13
2019-01-08T19:59:35.747Z,3.40
2019-01-08T20:02:06.640Z,3.60
2019-01-08T20:04:37.045Z,8.50
2019-01-08T20:07:08.353Z,8.67
2019-01-08T20:09:39.160Z,6.77
2019-01-08T20:12:10.408Z,6.70
2019-01-08T20:14:40.773Z,3.97
2019-01-08T20:17:10.820Z,7.60
2019-01-08T20:19:41.047Z,4.97
2019-01-08T20:22:11.349Z,4.57
2019-01-08T20:24:41.660Z,3.10
2019-01-08T20:27:12.204Z,4.90
2019-01-08T20:29:42.243Z,6.03
2019-01-08T20:32:12.122Z,4.23
2019-01-08T20:34:43.513Z,7.13
2019-01-08T20:37:14.112Z,2.73
2019-01-08T20:39:44.234Z,4.60
2019-01-08T20:42:14.861Z,4.10
2019-01-08T20:44:45.155Z,4.33
2019-01-08T20:47:15.401Z,4.83
2019-01-08T20:49:45.349Z,2.63
2019-01-08T20:52:15.275Z,2.77
2019-01-08T20:54:45.530Z,5.80
2019-01-08T20:57:16.552Z,5.17
2019-01-08T20:59:46.678Z,3.63
2019-01-08T21:02:17.258Z,3.27
2019-01-08T21:04:47.619Z,3.67
2019-01-08T21:07:17.740Z,4.07
2019-01-08T21:09:47.506Z,3.73
2019-01-08T21:12:17.506Z,3.63
2019-01-08T21:14:47.961Z,5.17
2019-01-08T21:17:18.392Z,3.50
2019-01-08T21:19:48.396Z,10.53
2019-01-08T21:22:18.383Z,5.50
2019-01-08T21:24:48.370Z,6.80
2019-01-08T21:27:19.065Z,3.07
2019-01-08T21:29:49.331Z,4.63
2019-01-08T21:32:19.677Z,5.27
2019-01-08T21:34:50.493Z,4.23
2019-01-08T21:37:20.440Z,4.73
2019-01-08T21:39:50.333Z,4.77
2019-01-08T21:42:20.257Z,6.23
2019-01-08T21:44:51.375Z,6.27
2019-01-08T21:47:21.864Z,4.93
2019-01-08T21:49:52.051Z,5.60
2019-01-08T21:52:22.451Z,8.07
2019-01-08T21:54:53.482Z,6.00
2019-01-08T21:57:23.932Z,5.07
2019-01-08T21:59:54.002Z,5.30
2019-01-08T22:02:24.320Z,4.10
2019-01-08T22:04:54.782Z,8.43
2019-01-08T22:07:25.280Z,9.80
2019-01-08T22:09:55.855Z,5.30
2019-01-08T22:12:26.389Z,4.43
2019-01-08T22:14:56.367Z,3.47
2019-01-08T22:17:28.749Z,5.87
2019-01-08T22:19:59.487Z,6.93
2019-01-08T22:22:29.854Z,7.13
2019-01-08T22:25:00.579Z,6.90
2019-01-08T22:27:30.940Z,4.17
2019-01-08T22:30:01.381Z,5.03
2019-01-08T22:32:31.444Z,3.93
2019-01-08T22:35:02.755Z,8.07
2019-01-08T22:37:33.390Z,6.70
2019-01-08T22:40:03.491Z,6.00
2019-01-08T22:42:33.876Z,6.87
2019-01-08T22:45:04.109Z,9.93
2019-01-08T22:47:36.546Z,4.43
2019-01-08T22:50:08.192Z,7.27
2019-01-08T22:52:38.954Z,7.10
2019-01-08T22:55:09.961Z,5.37
2019-01-08T22:57:40.222Z,3.40
2019-01-08T23:00:33.329Z,4.03
2019-01-08T23:03:03.362Z,7.07
2019-01-08T23:05:34.905Z,3.80
2019-01-08T23:08:04.846Z,5.50
2019-01-08T23:10:35.142Z,2.67
2019-01-08T23:13:05.419Z,11.17
2019-01-08T23:15:36.608Z,5.67
2019-01-08T23:18:07.140Z,9.23
2019-01-08T23:20:37.386Z,5.17
2019-01-08T23:23:07.327Z,3.63
2019-01-08T23:25:37.595Z,5.50
2019-01-08T23:28:07.546Z,3.27
2019-01-08T23:30:38.149Z,5.63
2019-01-08T23:33:08.321Z,7.73
2019-01-08T23:35:38.633Z,10.97
2019-01-08T23:38:08.639Z,6.47
2019-01-08T23:40:39.956Z,6.83
2019-01-08T23:43:11.618Z,4.03
2019-01-08T23:45:41.543Z,4.77
2019-01-08T23:48:11.496Z,3.43
2019-01-08T23:50:41.461Z,4.77
2019-01-08T23:53:17.830Z,8.13
2019-01-08T23:55:51.000Z,1.70
2019-01-08T23:58:21.649Z,2.83
